Other Surface Observations
Issued by NWS Missoula, MT

Home | Current Version | Previous Version | Text Only | Print | Product List | Glossary On
Versions: 1 2 3 4 5 6 7 8 9 10 11 12 13 14 15 16 17 18 19 20 21 22 23 24 25 26 27 28 29 30 31 32 33 34 35 36 37 38 39 40 41 42 43 44 45 46 47 48 49 50
000
SXUS55 KMSO 261403
OSOMSO
MONTANA AWOS SUMMARY
NATIONAL WEATHER SERVICE MISSOULA MT
702 AM MST FRI DEC 26 2014

Montana AWOS Reports

SCOBEY      |K9S2 261355Z AUTO 00000KT 7SM M16/M21 A3006 RMK AO1 T11601210
LAUREL      |K6S8 261355Z AUTO 00000KT 25SM M16/M19 A2999 RMK AO1 T11551193
ROUNDUP     |KRPX 261355Z AUTO 22004KT 40SM M16/M19 A2994 RMK AO1 T11551193
TWIN BRIDGES|K7S1 261355Z AUTO 12004KT 25SM M10/M15 A3000 RMK AO1 T10991149




USA.gov is the U.S. government's official web portal to all federal, state and local government web resources and services.